Impacts TAF Board
For situational awareness. Not to be used for flight planning purposes.
IDs:

KIAH - Houston/Bush Intl, TX, US

Issued at 1120 UTC 16 Aug 2022
Updated at 1229 UTC 16 Aug 2022
Potential Impact None Slight Moderate High
Time1153Z 16/13Z 16/14Z 16/15Z 16/16Z 16/17Z 16/18Z 16/19Z 16/20Z 16/21Z 16/22Z 16/23Z 17/00Z 17/01Z>>
Type OBS PRVL PRVL PRVL PRVL PRVL PRVL PRVL PRVL PRVL PRVL PRVL PRVL PRVL
VIS 10 >6 >6 >6 >6 >6 >6 >6 >6 >6 >6 >6 >6 >6
CIG 250 -- -- -- -- -- -- -- -- -- -- -- -- --
Cover BKN SCT SCT FEW FEW FEW FEW FEW FEW FEW FEW FEW FEW FEW
FltCat VFR VFR VFR VFR VFR VFR VFR VFR VFR VFR VFR VFR VFR VFR
WX -- -- -- -- -- -- -- -- -- -- -- -- -- --
WDir 360 VRB VRB 180 180 180 180 180 180 180 150 150 150 150
WSpd 3 3 3 6 6 6 6 6 6 6 9 9 9 9
WGst -- -- -- -- -- -- -- -- -- -- -- -- -- --
WSHgt -- -- -- -- -- -- -- -- -- -- -- -- -- --
WSDir -- -- -- -- -- -- -- -- -- -- -- -- -- --
WSSpd -- -- -- -- -- -- -- -- -- -- -- -- -- --
R08/26
XWnd 3 VRB VRB -6 -6 -6 -6 -6 -6 -6 -8 -8 -8 -8
HWnd -0 VRB VRB 0 0 0 0 0 0 0 5 5 5 5
R09/27
XWnd 3 VRB VRB -6 -6 -6 -6 -6 -6 -6 -8 -8 -8 -8
HWnd -0 VRB VRB 0 0 0 0 0 0 0 5 5 5 5
R15/33
XWnd 1 VRB VRB -3 -3 -3 -3 -3 -3 -3 0 0 0 0
HWnd -3 VRB VRB 5 5 5 5 5 5 5 9 9 9 9
Raw TAF
KIAH 161120Z 1612/1718 VRB03KT P6SM SCT250
  FM161500 18006KT P6SM FEW035
  FM162200 15009KT P6SM FEW050
  FM170600 VRB03KT P6SM FEW025
  FM171500 22005KT P6SM FEW035


Raw METAR
KIAH 161153Z 36003KT 10SM FEW020 BKN250 24/23 A2993 RMK AO2 SLP135 T02390233 10272 20233 51005
KIAH 161053Z 21003KT 10SM SCT250 24/23 A2993 RMK AO2 SLP133 T02390233
KIAH 160953Z 22003KT 10SM SCT250 24/23 A2993 RMK AO2 SLP133 T02440233

METAR Board
Radar Display
Forecast Discussion
For situational awareness. Not to be used for flight planning purposes.